Time;durP1;ratioP1;P1;durP2;ratioP2;P2;SDS_P1;SDS_P2;PMS_P1;PMS_P2;Temp;Humidity;BMP_temperature;BMP_pressure;BME280_temperature;BME280_humidity;BME280_pressure;Samples;Min_cycle;Max_cycle;Signal;HPM_P1;HPM_P2
2022/09/16 00:01:46;;;;;;;1.35;0.20;;;;;;;13.37;74.58;101186.75;5057632;27;96641;-30
2022/09/16 00:04:11;;;;;;;0.95;0.40;;;;;;;13.36;74.68;101187.75;5056905;27;110988;-31
2022/09/16 00:06:37;;;;;;;0.32;0.20;;;;;;;13.34;74.67;101190.56;5056656;27;111598;-30
2022/09/16 00:09:02;;;;;;;1.45;0.28;;;;;;;13.30;74.64;101186.34;5057266;27;97227;-29
2022/09/16 00:11:33;;;;;;;0.82;0.30;;;;;;;13.29;74.83;101184.56;5057631;27;96734;-31
2022/09/16 00:13:58;;;;;;;0.63;0.20;;;;;;;13.32;74.47;101200.72;5039569;27;96919;-31
2022/09/16 00:16:25;;;;;;;0.60;0.25;;;;;;;13.37;74.05;101195.81;5056597;27;97313;-30
2022/09/16 00:18:56;;;;;;;0.45;0.15;;;;;;;13.40;73.79;101192.03;5015574;28;101064;-29
2022/09/16 00:21:23;;;;;;;2.65;0.22;;;;;;;13.42;73.23;101200.06;5016317;28;96502;-30
2022/09/16 00:24:04;;;;;;;0.57;0.17;;;;;;;13.44;72.91;101195.38;5014980;28;96827;-31
2022/09/16 00:26:29;;;;;;;0.90;0.20;;;;;;;13.48;72.88;101196.94;5016735;28;98012;-30
2022/09/16 00:28:55;;;;;;;1.33;0.28;;;;;;;13.47;72.55;101198.78;5016348;28;99569;-29
2022/09/16 00:31:26;;;;;;;3.17;0.28;;;;;;;13.50;72.65;101203.16;5016671;28;96526;-30
2022/09/16 00:33:52;;;;;;;1.33;0.35;;;;;;;13.51;72.61;101197.56;5016808;28;96866;-30
2022/09/16 00:36:18;;;;;;;2.05;0.38;;;;;;;13.52;73.00;101201.19;5015672;28;116968;-30
2022/09/16 00:38:44;;;;;;;2.78;0.15;;;;;;;13.50;72.51;101206.72;5015090;28;101243;-30
2022/09/16 00:41:18;;;;;;;1.90;0.52;;;;;;;13.51;72.34;101208.47;5016658;28;96651;-30
2022/09/16 00:43:55;;;;;;;1.45;0.50;;;;;;;13.49;72.27;101207.72;5015125;28;96968;-30
2022/09/16 00:46:44;;;;;;;0.98;0.50;;;;;;;13.50;72.34;101203.16;5014463;28;100991;-31
2022/09/16 00:49:17;;;;;;;0.80;0.25;;;;;;;13.47;72.41;101206.94;5015535;28;98299;-29
2022/09/16 00:51:46;;;;;;;0.05;0.05;;;;;;;13.50;72.21;101204.00;5015061;28;96577;-30
2022/09/16 00:54:13;;;;;;;0.73;0.10;;;;;;;13.51;72.01;101211.19;5015122;28;96909;-29
2022/09/16 00:56:42;;;;;;;0.60;0.20;;;;;;;13.50;71.71;101201.28;5014561;28;101248;-29
2022/09/16 00:59:13;;;;;;;0.52;0.20;;;;;;;13.53;71.91;101197.47;5014516;28;100657;-31
2022/09/16 01:01:41;;;;;;;1.58;0.20;;;;;;;13.55;71.74;101200.97;5014371;28;96623;-32
2022/09/16 01:04:31;;;;;;;0.50;0.15;;;;;;;13.61;71.83;101206.00;5016368;28;96934;-30
2022/09/16 01:06:58;;;;;;;0.43;0.08;;;;;;;13.63;71.37;101198.59;5014623;28;100934;-30
2022/09/16 01:09:25;;;;;;;0.00;0.00;;;;;;;13.66;71.75;101202.94;5015734;28;98844;-31
2022/09/16 01:11:51;;;;;;;0.57;0.15;;;;;;;13.65;71.71;101202.09;5013941;28;96907;-30
2022/09/16 01:17:22;;;;;;;0.52;0.08;;;;;;;13.66;72.12;101200.22;5024959;27;96787;-30
2022/09/16 01:19:59;;;;;;;0.17;0.13;;;;;;;13.65;71.78;101203.94;5037750;27;100732;-31
2022/09/16 01:22:57;;;;;;;1.95;0.20;;;;;;;13.67;71.79;101205.56;5056492;27;96706;-30
2022/09/16 01:25:28;;;;;;;0.20;0.20;;;;;;;13.68;72.44;101206.44;5056029;27;96782;-31
2022/09/16 01:28:05;;;;;;;0.77;0.30;;;;;;;13.67;72.46;101196.53;5055857;27;99534;-29
2022/09/16 01:30:45;;;;;;;1.92;0.45;;;;;;;13.66;72.22;101197.50;5056179;27;99282;-29
2022/09/16 01:33:25;;;;;;;0.63;0.20;;;;;;;13.70;72.29;101218.09;5056358;27;96728;-30
2022/09/16 01:36:28;;;;;;;1.08;0.15;;;;;;;13.71;71.85;101223.44;5037890;27;97100;-31
2022/09/16 01:39:24;;;;;;;0.63;0.28;;;;;;;13.67;72.29;101223.75;5022842;27;97917;-31
2022/09/16 01:42:06;;;;;;;0.45;0.17;;;;;;;13.62;72.50;101231.38;5056312;27;97370;-30
2022/09/16 01:44:35;;;;;;;0.68;0.15;;;;;;;13.58;72.82;101242.44;5037773;27;96745;-30
2022/09/16 01:47:17;;;;;;;0.70;0.30;;;;;;;13.53;72.98;101230.16;5055911;27;96852;-30
2022/09/16 01:50:06;;;;;;;0.20;0.20;;;;;;;13.53;73.66;101225.56;5055674;27;99477;-30
2022/09/16 01:52:42;;;;;;;0.90;0.20;;;;;;;13.55;74.07;101222.75;5037347;27;101182;-30
2022/09/16 01:55:14;;;;;;;0.10;0.10;;;;;;;13.55;73.74;101220.91;5037662;27;96588;-30
2022/09/16 01:57:54;;;;;;;0.13;0.00;;;;;;;13.54;74.46;101221.03;5056541;27;96504;-29
2022/09/16 02:00:21;;;;;;;0.32;0.10;;;;;;;13.51;74.03;101215.75;5037092;27;101088;-30
2022/09/16 02:02:57;;;;;;;0.63;0.10;;;;;;;13.50;74.73;101214.03;5037305;27;101044;-31
2022/09/16 02:05:47;;;;;;;0.45;0.10;;;;;;;13.45;75.28;101217.06;5036828;27;96731;-30
2022/09/16 02:08:19;;;;;;;1.75;0.10;;;;;;;13.42;75.03;101214.56;5037457;27;96864;-30
2022/09/16 02:10:54;;;;;;;1.13;0.20;;;;;;;13.42;76.06;101216.38;5037032;27;100791;-30
2022/09/16 02:13:25;;;;;;;3.45;0.10;;;;;;;13.38;75.68;101216.59;5035904;27;100540;-29
2022/09/16 02:15:52;;;;;;;0.10;0.10;;;;;;;13.37;75.09;101211.25;5037310;27;96807;-30
2022/09/16 02:18:23;;;;;;;0.13;0.05;;;;;;;13.41;75.53;101212.78;5036915;27;96868;-30
2022/09/16 02:20:52;;;;;;;0.00;0.00;;;;;;;13.38;75.86;101210.28;5036783;27;100917;-29
2022/09/16 02:23:22;;;;;;;0.93;0.28;;;;;;;13.35;75.71;101210.50;5037253;27;100959;-29
2022/09/16 02:25:49;;;;;;;0.20;0.10;;;;;;;13.34;75.98;101206.03;5036992;27;96780;-29
2022/09/16 02:28:36;;;;;;;0.63;0.10;;;;;;;13.33;75.90;101202.44;5037118;27;96786;-30
2022/09/16 02:31:05;;;;;;;0.65;0.10;;;;;;;13.29;75.86;101210.91;5054597;27;97586;-29
2022/09/16 02:34:04;;;;;;;2.35;0.20;;;;;;;13.33;76.40;101212.44;5036738;27;100976;-29
2022/09/16 02:36:32;;;;;;;0.77;0.10;;;;;;;13.31;76.21;101214.41;5027834;27;96895;-30
2022/09/16 02:39:06;;;;;;;0.52;0.10;;;;;;;13.32;75.88;101219.75;5055426;27;96775;-31
2022/09/16 02:41:31;;;;;;;0.00;0.00;;;;;;;13.29;76.82;101217.22;5036591;27;100231;-29
2022/09/16 02:43:56;;;;;;;2.97;0.40;;;;;;;13.29;76.23;101228.09;5055020;27;97848;-30
2022/09/16 02:46:30;;;;;;;0.15;0.03;;;;;;;13.30;76.35;101229.88;5055108;27;96638;-30
2022/09/16 02:48:56;;;;;;;1.88;0.28;;;;;;;13.31;76.49;101237.03;5037276;27;96778;-30
2022/09/16 02:51:55;;;;;;;1.10;0.13;;;;;;;13.21;76.53;101230.44;5054632;27;99350;-30
2022/09/16 02:54:48;;;;;;;0.35;0.10;;;;;;;13.17;76.82;101229.75;5036348;27;100818;-31
2022/09/16 02:57:14;;;;;;;2.30;0.20;;;;;;;13.09;76.58;101218.53;5036199;27;96568;-31
2022/09/16 02:59:40;;;;;;;0.88;0.30;;;;;;;13.15;76.59;101212.66;5036541;27;96954;-29
2022/09/16 03:02:05;;;;;;;3.10;0.13;;;;;;;13.18;76.50;101208.88;5036365;27;101366;-29
2022/09/16 03:04:34;;;;;;;0.47;0.10;;;;;;;13.18;76.76;101215.19;5054777;27;97799;-30
2022/09/16 03:06:59;;;;;;;0.45;0.10;;;;;;;13.21;76.78;101225.00;5036564;27;96652;-29
2022/09/16 03:09:28;;;;;;;0.20;0.20;;;;;;;13.21;76.37;101224.13;5054817;27;96801;-30
2022/09/16 03:12:04;;;;;;;2.05;0.10;;;;;;;13.18;76.17;101215.19;5036010;27;101123;-31
2022/09/16 03:14:52;;;;;;;1.75;0.20;;;;;;;13.14;76.69;101221.81;5036538;27;101648;-30
2022/09/16 03:17:32;;;;;;;0.10;0.05;;;;;;;13.14;76.41;101221.81;5054371;27;96566;-30
2022/09/16 03:20:00;;;;;;;0.55;0.17;;;;;;;13.15;76.27;101209.94;5036550;27;96803;-29
2022/09/16 03:22:54;;;;;;;0.22;0.05;;;;;;;13.14;75.61;101219.09;5053920;27;97902;-29
2022/09/16 03:25:49;;;;;;;0.73;0.17;;;;;;;13.15;75.60;101209.06;5039312;27;101445;-31
2022/09/16 03:28:24;;;;;;;0.00;0.00;;;;;;;13.13;75.93;101222.78;5058462;27;96458;-30
2022/09/16 03:31:06;;;;;;;2.10;0.50;;;;;;;13.14;75.92;101218.22;5039931;27;96706;-29
2022/09/16 03:34:12;;;;;;;1.00;0.20;;;;;;;13.14;76.40;101224.53;5039284;27;100882;-30
2022/09/16 03:36:47;;;;;;;1.38;0.20;;;;;;;13.07;76.36;101222.31;5036515;27;101128;-29
2022/09/16 03:39:13;;;;;;;0.22;0.00;;;;;;;13.00;76.87;101210.97;5039913;27;96578;-30
2022/09/16 03:41:39;;;;;;;0.43;0.10;;;;;;;12.95;76.43;101214.00;5039955;27;96784;-29
2022/09/16 03:44:04;;;;;;;0.40;0.28;;;;;;;12.96;76.76;101215.72;5057554;27;97915;-29
2022/09/16 03:46:30;;;;;;;0.77;0.22;;;;;;;12.92;76.74;101216.91;5057515;27;99168;-29
2022/09/16 03:48:56;;;;;;;0.00;0.00;;;;;;;12.90;76.80;101210.69;5057253;27;96627;-31
2022/09/16 03:51:22;;;;;;;0.28;0.17;;;;;;;12.90;76.62;101199.81;5039711;27;96910;-31
2022/09/16 03:53:49;;;;;;;1.33;0.25;;;;;;;12.87;77.33;101199.13;5039088;27;100740;-29
2022/09/16 03:56:14;;;;;;;0.95;0.00;;;;;;;12.87;77.05;101210.00;5039114;27;101183;-30
2022/09/16 03:58:39;;;;;;;0.00;0.00;;;;;;;12.85;76.93;101203.84;5057387;27;96599;-30
2022/09/16 04:01:04;;;;;;;2.20;0.20;;;;;;;12.87;77.57;101213.63;5056994;27;109375;-31
2022/09/16 04:03:30;;;;;;;3.08;0.25;;;;;;;12.89;77.00;101224.38;5056917;27;112251;-29
2022/09/16 04:05:56;;;;;;;2.47;0.38;;;;;;;12.87;78.08;101226.31;5057455;27;98120;-31
2022/09/16 04:08:22;;;;;;;0.08;0.05;;;;;;;12.88;78.07;101228.09;5057523;27;96637;-30
2022/09/16 04:11:06;;;;;;;0.03;0.03;;;;;;;12.87;77.74;101223.59;5039272;27;96671;-29
2022/09/16 04:13:33;;;;;;;0.60;0.05;;;;;;;12.85;77.14;101222.88;5038184;27;101475;-30
2022/09/16 04:16:00;;;;;;;0.03;0.03;;;;;;;12.87;77.55;101215.44;5038914;27;101234;-31
2022/09/16 04:18:25;;;;;;;1.70;0.10;;;;;;;12.88;78.05;101217.22;5021332;27;96764;-30
2022/09/16 04:20:58;;;;;;;0.43;0.17;;;;;;;12.82;78.70;101201.28;5016654;28;98318;-30
2022/09/16 04:23:25;;;;;;;2.10;0.10;;;;;;;12.80;77.96;101198.69;5016590;28;100005;-30
2022/09/16 04:26:00;;;;;;;0.45;0.13;;;;;;;12.80;78.78;101197.78;5014948;28;99077;-29
2022/09/16 04:28:25;;;;;;;1.02;0.05;;;;;;;12.81;77.64;101205.00;5016802;28;96518;-32
2022/09/16 04:30:51;;;;;;;0.80;0.28;;;;;;;12.79;78.51;101190.63;5017344;28;96803;-30
2022/09/16 04:33:16;;;;;;;0.43;0.10;;;;;;;12.78;78.57;101192.47;5016633;28;97512;-30
2022/09/16 04:35:42;;;;;;;1.55;0.25;;;;;;;12.79;77.97;101190.63;5014044;28;100943;-29
2022/09/16 04:38:07;;;;;;;1.02;0.20;;;;;;;12.77;78.50;101193.44;5015992;28;96711;-28
2022/09/16 04:40:32;;;;;;;0.10;0.10;;;;;;;12.75;78.89;101190.84;5015933;28;111880;-31
2022/09/16 04:42:58;;;;;;;0.13;0.08;;;;;;;12.74;78.30;101188.22;5016422;28;99871;-30
2022/09/16 04:45:23;;;;;;;0.03;0.03;;;;;;;12.65;78.50;101181.50;5016388;28;97840;-29
2022/09/16 04:47:57;;;;;;;1.65;0.22;;;;;;;12.59;78.48;101181.94;5016886;28;96671;-29
2022/09/16 04:50:23;;;;;;;0.32;0.20;;;;;;;12.58;78.88;101180.16;5015099;28;96792;-31
2022/09/16 04:52:50;;;;;;;2.72;0.30;;;;;;;12.56;79.07;101195.72;5014428;28;101319;-30
2022/09/16 04:55:17;;;;;;;0.20;0.08;;;;;;;12.57;78.86;101200.19;5014964;28;101120;-31
2022/09/16 04:57:42;;;;;;;0.63;0.25;;;;;;;12.57;79.48;101200.19;5014907;28;96670;-29
2022/09/16 05:00:09;;;;;;;0.00;0.00;;;;;;;12.58;79.13;101190.16;5016784;28;96816;-30
2022/09/16 05:02:35;;;;;;;1.13;0.50;;;;;;;12.58;80.04;101193.75;5014065;28;100864;-30
2022/09/16 05:05:00;;;;;;;1.20;0.28;;;;;;;12.63;79.76;101197.06;5016108;28;97807;-29
2022/09/16 05:07:27;;;;;;;0.40;0.25;;;;;;;12.62;80.00;101189.00;5016112;28;96796;-31
2022/09/16 05:09:53;;;;;;;0.38;0.10;;;;;;;12.69;78.94;101196.66;5014743;28;96978;-31
2022/09/16 05:12:18;;;;;;;5.75;0.50;;;;;;;12.69;79.54;101191.22;5015618;28;98718;-30
2022/09/16 05:14:43;;;;;;;0.38;0.20;;;;;;;12.69;79.70;101191.22;5015573;28;106298;-30
2022/09/16 05:17:09;;;;;;;3.40;0.47;;;;;;;12.68;79.34;101186.78;5018877;27;96790;-29
2022/09/16 05:19:34;;;;;;;1.65;0.35;;;;;;;12.69;79.07;101191.22;5056625;27;106465;-30
2022/09/16 05:22:01;;;;;;;0.43;0.25;;;;;;;12.72;79.08;101195.59;5055678;27;113913;-29
2022/09/16 05:24:27;;;;;;;2.45;0.45;;;;;;;12.73;79.02;101197.34;5037543;27;99069;-30
2022/09/16 05:26:52;;;;;;;0.88;0.28;;;;;;;12.74;78.93;101199.09;5056083;27;96590;-29
2022/09/16 05:29:17;;;;;;;2.33;0.43;;;;;;;12.70;79.42;101203.84;5055666;27;111206;-30
2022/09/16 05:31:46;;;;;;;0.80;0.43;;;;;;;12.67;79.91;101198.59;5055920;27;99519;-30
2022/09/16 05:34:17;;;;;;;1.45;0.47;;;;;;;12.63;79.88;101193.47;5037431;27;100768;-30
2022/09/16 05:36:43;;;;;;;1.63;0.65;;;;;;;12.63;80.12;101199.78;5037812;27;96605;-30
2022/09/16 05:39:12;;;;;;;1.58;0.52;;;;;;;12.62;79.35;101205.31;5037779;27;96903;-29
2022/09/16 05:41:38;;;;;;;1.45;0.40;;;;;;;12.62;79.10;101203.47;5037415;27;101420;-30
2022/09/16 05:44:05;;;;;;;2.75;0.80;;;;;;;12.65;79.73;101205.09;5037825;27;100725;-30
2022/09/16 05:46:31;;;;;;;2.13;0.40;;;;;;;12.67;79.40;101200.44;5037539;27;96625;-30
2022/09/16 05:48:56;;;;;;;1.45;0.45;;;;;;;12.67;79.95;101206.75;5055915;27;96699;-30
2022/09/16 05:51:22;;;;;;;1.33;0.57;;;;;;;12.69;80.12;101206.66;5055084;27;99272;-30
2022/09/16 05:53:50;;;;;;;0.50;0.40;;;;;;;12.74;79.30;101207.22;5037167;27;100799;-30
2022/09/16 05:56:18;;;;;;;2.05;0.40;;;;;;;12.80;79.67;101219.53;5037597;27;96550;-30
2022/09/16 05:58:45;;;;;;;1.08;0.40;;;;;;;12.75;79.49;101218.03;5037544;27;96578;-30
2022/09/16 06:01:13;;;;;;;0.90;0.35;;;;;;;12.72;80.14;101206.47;5037137;27;100633;-31
2022/09/16 06:03:40;;;;;;;0.95;0.30;;;;;;;12.77;79.09;101214.31;5036989;27;100937;-30
2022/09/16 06:06:12;;;;;;;0.45;0.20;;;;;;;12.79;79.19;101223.25;5037205;27;96705;-32
2022/09/16 06:08:39;;;;;;;3.13;0.10;;;;;;;12.78;78.43;101216.06;5037650;27;96917;-29
2022/09/16 06:11:07;;;;;;;2.28;0.35;;;;;;;12.82;78.44;101218.47;5036883;27;101242;-29
2022/09/16 06:13:33;;;;;;;3.17;0.30;;;;;;;12.82;78.02;101226.63;5036564;27;100884;-29
2022/09/16 06:15:59;;;;;;;2.63;0.50;;;;;;;12.85;78.53;101239.19;5036610;27;96815;-30
2022/09/16 06:18:26;;;;;;;1.38;0.35;;;;;;;12.84;78.16;101241.00;5036434;27;96863;-30
2022/09/16 06:20:52;;;;;;;5.38;0.60;;;;;;;12.82;78.17;101242.06;5036863;27;101158;-29
2022/09/16 06:23:18;;;;;;;1.17;0.28;;;;;;;12.74;77.91;101243.44;5035458;27;101229;-30
2022/09/16 06:25:44;;;;;;;0.25;0.10;;;;;;;12.70;78.05;101239.19;5055170;27;96911;-31
2022/09/16 06:28:10;;;;;;;2.78;0.47;;;;;;;12.69;78.20;101234.72;5037229;27;96869;-30
2022/09/16 06:30:38;;;;;;;0.60;0.30;;;;;;;12.70;77.91;101228.31;5054596;27;99487;-29
2022/09/16 06:33:04;;;;;;;0.88;0.20;;;;;;;12.72;78.42;101230.91;5055393;27;98009;-30
2022/09/16 06:35:32;;;;;;;2.70;0.08;;;;;;;12.68;78.25;101241.13;5037076;27;96701;-31
2022/09/16 06:37:58;;;;;;;0.30;0.00;;;;;;;12.70;77.62;101235.56;5036999;27;97327;-30
2022/09/16 06:40:24;;;;;;;0.10;0.00;;;;;;;12.75;77.58;101233.44;5034719;27;101010;-31
2022/09/16 06:42:52;;;;;;;0.17;0.13;;;;;;;12.88;76.60;101234.41;5053585;27;98121;-31
2022/09/16 06:45:18;;;;;;;0.55;0.13;;;;;;;13.06;76.02;101243.22;5055068;27;96703;-29
2022/09/16 06:47:43;;;;;;;0.22;0.15;;;;;;;13.21;75.61;101237.72;5054498;27;112064;-31
2022/09/16 06:50:08;;;;;;;0.75;0.20;;;;;;;13.35;75.18;101237.72;5054309;27;114470;-30
2022/09/16 06:52:34;;;;;;;0.13;0.08;;;;;;;13.50;74.90;101238.53;5054751;27;99905;-30
2022/09/16 06:55:00;;;;;;;0.65;0.20;;;;;;;13.66;74.30;101241.06;5054957;27;96730;-30
2022/09/16 06:57:25;;;;;;;0.85;0.15;;;;;;;13.77;73.85;101239.34;5037050;27;96868;-30
2022/09/16 06:59:51;;;;;;;0.00;0.00;;;;;;;13.89;73.62;101234.03;5058069;27;97817;-31
2022/09/16 07:02:17;;;;;;;5.53;0.40;;;;;;;14.02;73.36;101221.31;5040115;27;100684;-31
2022/09/16 07:04:43;;;;;;;0.35;0.10;;;;;;;14.15;73.04;101222.19;5039768;27;96821;-29
2022/09/16 07:07:08;;;;;;;0.43;0.22;;;;;;;14.22;72.80;101220.78;5057995;27;102632;-29
2022/09/16 07:09:34;;;;;;;3.15;0.15;;;;;;;14.34;72.21;101213.56;5058174;27;104505;-29
2022/09/16 07:11:59;;;;;;;1.30;0.40;;;;;;;14.45;71.86;101207.38;5058001;27;99134;-30
2022/09/16 07:14:26;;;;;;;0.43;0.20;;;;;;;14.53;72.18;101220.44;5058139;27;96759;-29
2022/09/16 07:16:52;;;;;;;1.90;0.20;;;;;;;14.62;71.75;101222.53;5058365;27;96844;-30
2022/09/16 07:19:17;;;;;;;0.95;0.32;;;;;;;14.74;71.91;101220.78;5057745;27;97904;-29
2022/09/16 07:21:43;;;;;;;1.38;0.32;;;;;;;14.90;71.18;101223.22;5058484;27;97708;-29
2022/09/16 07:24:11;;;;;;;0.40;0.10;;;;;;;15.11;71.14;101237.13;5039769;27;96563;-29
2022/09/16 07:26:37;;;;;;;0.98;0.30;;;;;;;15.32;70.71;101240.13;5039878;27;96973;-30
2022/09/16 07:29:05;;;;;;;3.63;0.30;;;;;;;15.45;70.38;101246.41;5038815;27;101456;-29
2022/09/16 07:31:33;;;;;;;1.10;0.38;;;;;;;15.27;69.96;101254.97;5039462;27;101527;-29
2022/09/16 07:34:02;;;;;;;1.75;0.22;;;;;;;15.00;71.31;101262.50;5039722;27;96728;-29
2022/09/16 07:36:32;;;;;;;0.77;0.22;;;;;;;14.72;71.90;101258.19;5039822;27;96830;-31
2022/09/16 07:38:57;;;;;;;3.72;0.32;;;;;;;14.42;72.80;101262.97;5039559;27;101115;-29
2022/09/16 07:41:26;;;;;;;0.52;0.10;;;;;;;14.20;73.68;101257.28;5057501;27;97340;-29
2022/09/16 07:43:57;;;;;;;0.35;0.00;;;;;;;13.97;74.08;101251.59;5039588;27;96581;-30
2022/09/16 07:46:24;;;;;;;0.35;0.10;;;;;;;13.89;74.30;101258.53;5039984;27;96843;-28
2022/09/16 07:48:50;;;;;;;0.55;0.08;;;;;;;13.83;74.59;101251.69;5039239;27;101044;-30
2022/09/16 07:51:18;;;;;;;2.97;0.30;;;;;;;13.80;74.98;101257.34;5057675;27;98038;-31
2022/09/16 07:53:45;;;;;;;0.63;0.28;;;;;;;13.84;74.89;101255.28;5057304;27;96507;-31
2022/09/16 07:56:22;;;;;;;1.98;0.13;;;;;;;13.92;74.03;101261.94;5039458;27;97011;-29
2022/09/16 07:58:47;;;;;;;0.15;0.03;;;;;;;14.07;74.29;101256.41;5057293;27;98872;-29
2022/09/16 08:01:14;;;;;;;1.55;0.28;;;;;;;14.38;73.46;101258.72;5057390;27;97827;-31
2022/09/16 08:03:41;;;;;;;3.00;0.30;;;;;;;14.74;72.64;101264.41;5039373;27;96562;-31
2022/09/16 08:06:11;;;;;;;0.80;0.20;;;;;;;15.04;72.07;101253.97;5039270;27;96824;-29
2022/09/16 08:08:37;;;;;;;0.10;0.10;;;;;;;15.29;71.41;101257.59;5056858;27;99530;-29
2022/09/16 08:11:03;;;;;;;0.93;0.20;;;;;;;15.15;70.72;101255.03;5039306;27;101343;-29
2022/09/16 08:13:30;;;;;;;2.80;0.32;;;;;;;15.14;70.97;101259.63;5057297;27;96837;-29
2022/09/16 08:16:09;;;;;;;0.47;0.10;;;;;;;15.29;71.31;101258.47;5039159;27;96851;-29
2022/09/16 08:18:35;;;;;;;1.17;0.10;;;;;;;15.47;71.33;101255.34;5037904;27;101033;-29
2022/09/16 08:21:06;;;;;;;0.52;0.10;;;;;;;15.51;70.74;101262.31;5039286;27;96676;-29
2022/09/16 08:23:32;;;;;;;2.38;0.50;;;;;;;15.44;70.66;101264.63;5039043;27;96634;-29
2022/09/16 08:25:58;;;;;;;1.38;0.13;;;;;;;15.40;70.82;101279.50;5038640;27;96838;-31
2022/09/16 08:28:25;;;;;;;0.47;0.22;;;;;;;15.18;71.18;101272.06;5038733;27;100869;-30
2022/09/16 08:30:51;;;;;;;1.98;0.10;;;;;;;14.94;71.88;101296.53;5038612;27;100913;-29
2022/09/16 08:33:19;;;;;;;0.10;0.10;;;;;;;14.79;72.15;101295.81;5057220;27;96785;-30
2022/09/16 08:35:45;;;;;;;3.13;0.47;;;;;;;14.65;72.86;101306.81;5057382;27;96880;-29
2022/09/16 08:38:12;;;;;;;0.22;0.17;;;;;;;14.52;73.27;101301.34;5056901;27;97929;-31
2022/09/16 08:40:43;;;;;;;2.65;0.15;;;;;;;14.43;74.14;101305.59;5038395;27;101266;-32
2022/09/16 08:43:18;;;;;;;0.70;0.17;;;;;;;14.34;74.27;101303.50;5038386;27;96668;-29
2022/09/16 08:45:54;;;;;;;1.45;0.30;;;;;;;14.32;74.48;101310.91;5038716;27;96766;-29
2022/09/16 08:48:34;;;;;;;2.53;0.30;;;;;;;14.31;74.22;101303.72;5038403;27;101226;-31
2022/09/16 08:51:01;;;;;;;0.40;0.20;;;;;;;14.35;73.96;101313.44;5056793;27;98176;-29
2022/09/16 08:53:48;;;;;;;4.75;0.28;;;;;;;14.31;74.04;101314.63;5038592;27;96649;-31
2022/09/16 08:56:17;;;;;;;3.10;0.50;;;;;;;14.29;73.91;101308.41;5038609;27;96794;-30
2022/09/16 08:58:50;;;;;;;0.28;0.03;;;;;;;14.30;73.88;101323.81;5038130;27;100854;-29
2022/09/16 09:01:40;;;;;;;0.90;0.30;;;;;;;14.29;73.97;101332.06;5038395;27;100578;-30
2022/09/16 09:04:06;;;;;;;0.95;0.25;;;;;;;14.27;74.11;101339.47;5038405;27;96743;-30
2022/09/16 09:06:54;;;;;;;0.55;0.10;;;;;;;14.27;73.32;101332.16;5056605;27;96841;-30
2022/09/16 09:10:19;;;;;;;3.42;0.20;;;;;;;14.35;72.79;101353.44;5037530;27;100899;-29
2022/09/16 09:13:20;;;;;;;2.78;0.15;;;;;;;14.19;73.31;101346.31;4957213;28;100706;-30
2022/09/16 09:16:10;;;;;;;0.93;0.27;;;;;;;14.10;73.52;101333.34;5015036;27;96931;-29
2022/09/16 09:19:03;;;;;;;2.85;0.20;;;;;;;14.07;74.29;101321.78;5020644;28;96684;-30
2022/09/16 09:21:55;;;;;;;0.17;0.05;;;;;;;14.05;73.77;101321.88;5015067;28;99334;-29
2022/09/16 09:24:43;;;;;;;0.17;0.07;;;;;;;14.08;73.82;101328.97;4985770;28;97401;-31
2022/09/16 09:27:32;;;;;;;0.65;0.22;;;;;;;14.07;73.92;101324.53;5015732;28;96692;-29
2022/09/16 09:29:57;;;;;;;0.30;0.20;;;;;;;14.15;74.19;101335.75;5016769;28;96746;-29
2022/09/16 09:32:25;;;;;;;2.28;0.10;;;;;;;14.19;73.69;101334.56;5015854;28;98014;-31
2022/09/16 09:35:15;;;;;;;1.17;0.10;;;;;;;14.19;73.62;101338.16;5015768;28;97626;-29
2022/09/16 09:37:51;;;;;;;3.03;0.05;;;;;;;14.18;73.29;101349.16;5015307;28;96577;-29
2022/09/16 09:40:34;;;;;;;0.85;0.00;;;;;;;14.11;73.79;101351.44;5014247;28;96814;-30
2022/09/16 09:43:18;;;;;;;1.95;0.28;;;;;;;14.00;73.95;101359.47;5014066;28;98977;-30
2022/09/16 09:46:01;;;;;;;0.10;0.00;;;;;;;13.82;74.25;101358.84;5015463;28;97303;-29
2022/09/16 09:48:41;;;;;;;1.85;0.20;;;;;;;13.74;74.59;101350.31;5014158;28;96555;-29
2022/09/16 09:51:45;;;;;;;1.35;0.20;;;;;;;13.73;74.43;101354.00;5014256;28;96712;-29
2022/09/16 09:54:26;;;;;;;2.13;0.22;;;;;;;13.62;74.90;101338.41;4990978;28;97641;-30
2022/09/16 09:57:00;;;;;;;0.10;0.05;;;;;;;13.63;74.28;101340.13;5014175;28;101290;-29
2022/09/16 09:59:28;;;;;;;0.43;0.10;;;;;;;13.69;73.97;101334.31;5014117;28;96572;-29
2022/09/16 10:01:55;;;;;;;1.10;0.32;;;;;;;13.73;73.88;101332.22;5015403;28;96866;-29
2022/09/16 10:04:21;;;;;;;0.90;0.10;;;;;;;13.89;74.44;101329.34;5014500;28;97942;-30
2022/09/16 10:06:48;;;;;;;0.10;0.10;;;;;;;14.54;73.92;101333.97;5013688;28;100463;-30
2022/09/16 10:09:16;;;;;;;2.08;0.10;;;;;;;15.09;72.29;101324.59;5013868;28;96601;-29
2022/09/16 10:11:55;;;;;;;4.50;0.28;;;;;;;15.76;70.83;101320.59;5013639;28;96570;-30
2022/09/16 10:14:28;;;;;;;0.55;0.30;;;;;;;16.16;69.67;101321.13;5015079;28;97337;-30
2022/09/16 10:16:54;;;;;;;1.23;0.10;;;;;;;16.57;68.49;101317.00;5015195;28;97919;-29
2022/09/16 10:19:25;;;;;;;2.67;0.20;;;;;;;16.92;68.13;101308.72;5053973;27;96849;-30
2022/09/16 10:21:54;;;;;;;0.05;0.05;;;;;;;17.32;67.96;101319.13;5037362;27;96768;-29
2022/09/16 10:24:32;;;;;;;1.23;0.10;;;;;;;17.38;67.18;101323.25;5036431;27;101147;-29
2022/09/16 10:26:59;;;;;;;3.30;0.20;;;;;;;17.10;67.91;101316.44;5036959;27;98980;-28
2022/09/16 10:29:25;;;;;;;0.25;0.15;;;;;;;16.68;68.62;101310.66;5036706;27;96566;-30
2022/09/16 10:31:51;;;;;;;0.50;0.20;;;;;;;16.44;69.48;101311.59;5055681;27;96874;-30
2022/09/16 10:34:27;;;;;;;3.38;0.05;;;;;;;16.37;69.77;101314.94;5035430;27;100769;-29
2022/09/16 10:37:07;;;;;;;0.35;0.22;;;;;;;16.22;70.48;101327.97;5036616;27;100714;-29
2022/09/16 10:39:33;;;;;;;1.85;0.40;;;;;;;15.89;70.76;101319.50;5055452;27;96657;-30
2022/09/16 10:41:59;;;;;;;0.70;0.40;;;;;;;15.74;71.85;101308.91;5055049;27;96578;-29
2022/09/16 10:44:29;;;;;;;1.45;0.47;;;;;;;15.70;71.58;101305.50;5036377;27;99056;-30
2022/09/16 10:47:07;;;;;;;1.75;0.43;;;;;;;15.58;71.40;101304.53;5036851;27;101342;-30
2022/09/16 10:49:46;;;;;;;1.42;0.17;;;;;;;15.66;71.28;101310.31;5055166;27;96565;-29
2022/09/16 10:52:17;;;;;;;0.13;0.10;;;;;;;15.91;71.26;101303.88;5036906;27;96697;-29
2022/09/16 10:54:43;;;;;;;1.50;0.20;;;;;;;16.40;70.23;101310.13;5036177;27;101046;-29
2022/09/16 10:57:30;;;;;;;0.75;0.28;;;;;;;16.83;69.47;101304.00;5036172;27;101221;-30
2022/09/16 11:00:14;;;;;;;0.45;0.30;;;;;;;17.02;68.55;101310.69;5036727;27;96577;-29
2022/09/16 11:03:04;;;;;;;0.63;0.10;;;;;;;16.77;68.25;101313.53;5055222;27;96807;-29
2022/09/16 11:05:50;;;;;;;0.08;0.08;;;;;;;16.79;68.53;101310.72;5054588;27;98162;-29
2022/09/16 11:08:42;;;;;;;0.40;0.20;;;;;;;17.22;68.35;101315.41;5036507;27;101256;-29
2022/09/16 11:11:46;;;;;;;0.20;0.05;;;;;;;17.68;67.83;101317.06;5054888;27;96561;-30
2022/09/16 11:14:30;;;;;;;1.70;0.57;;;;;;;18.06;66.57;101318.44;5024124;27;96941;-30
2022/09/16 11:17:35;;;;;;;0.17;0.10;;;;;;;18.35;65.23;101310.47;5054597;27;96627;-29
2022/09/16 11:20:19;;;;;;;2.05;0.15;;;;;;;17.90;64.89;101316.16;4989775;28;101196;-31
2022/09/16 11:23:03;;;;;;;2.33;0.25;;;;;;;17.48;65.10;101323.34;5014211;28;96685;-29
2022/09/16 11:25:47;;;;;;;2.92;0.20;;;;;;;17.04;64.28;101315.06;5013995;28;96902;-29
2022/09/16 11:28:45;;;;;;;0.77;0.32;;;;;;;17.30;65.29;101312.91;5012569;28;98948;-30
2022/09/16 11:31:37;;;;;;;0.40;0.10;;;;;;;17.71;63.96;101304.97;5012676;28;100747;-29
2022/09/16 11:34:15;;;;;;;2.00;0.40;;;;;;;18.08;62.74;101305.47;5013025;28;96718;-30
2022/09/16 11:37:09;;;;;;;2.83;0.30;;;;;;;18.32;62.08;101307.09;5012973;28;96741;-29
2022/09/16 11:39:37;;;;;;;1.65;0.20;;;;;;;18.56;62.30;101320.56;4999588;28;98240;-32
2022/09/16 11:42:09;;;;;;;3.70;0.28;;;;;;;18.39;60.51;101311.06;5014007;28;99582;-30
2022/09/16 11:44:45;;;;;;;1.35;0.28;;;;;;;18.36;61.50;101314.06;5015638;28;96704;-30
2022/09/16 11:47:31;;;;;;;2.33;0.40;;;;;;;17.99;60.20;101309.88;5016017;28;96770;-30
2022/09/16 11:50:11;;;;;;;0.55;0.25;;;;;;;17.55;62.34;101336.41;5015299;28;100904;-29